ADDS METAR Data INFO
IDs: Format: Raw Decoded Include TAF

Data at: 1508 UTC 23 Oct 2017

METAR for:KRSW (Ft Myers/SW Florida, FL, US)
Text:KRSW 231453Z 15010KT 10SM CLR 27/24 A3004 RMK AO2 SLP168 T02720244 58003
Temperature: 27.2°C ( 81°F)
Dewpoint: 24.4°C ( 76°F) [RH = 85%]
Pressure (altimeter):30.04 inches Hg (1017.4 mb) [Sea level pressure: 1016.8 mb]
Winds:from the SSE (150 degrees) at 12 MPH (10 knots; 5.1 m/s)
Visibility:10 or more sm (16+ km)
Ceiling:at least 12,000 feet AGL
Clouds:sky clear below 12,000 feet AGL